createdAt,value
2018-05-02T00:02:27.768Z,97889.28
2018-05-02T00:04:56.036Z,97890.75
2018-05-02T00:07:24.290Z,97889.30
2018-05-02T00:09:52.565Z,97891.16
2018-05-02T00:12:20.815Z,97883.08
2018-05-02T00:14:49.095Z,97876.53
2018-05-02T00:17:17.355Z,97882.58
2018-05-02T00:19:46.388Z,97879.85
2018-05-02T00:22:14.660Z,97887.75
2018-05-02T00:24:44.507Z,97899.73
2018-05-02T00:27:12.797Z,97903.23
2018-05-02T00:29:41.063Z,97905.30
2018-05-02T00:32:09.314Z,97906.13
2018-05-02T00:34:37.579Z,97899.09
2018-05-02T00:37:05.888Z,97905.41
2018-05-02T00:39:34.135Z,97908.02
2018-05-02T00:42:02.427Z,97915.21
2018-05-02T00:44:30.680Z,97910.14
2018-05-02T00:46:58.950Z,97918.34
2018-05-02T00:49:27.207Z,97906.89
2018-05-02T00:51:56.255Z,97906.81
2018-05-02T00:54:24.506Z,97910.81
2018-05-02T00:56:52.772Z,97903.06
2018-05-02T00:59:21.050Z,97897.50
2018-05-02T01:01:49.331Z,97896.16
2018-05-02T01:04:17.612Z,97896.30
2018-05-02T01:06:45.905Z,97890.73
2018-05-02T01:09:14.178Z,97894.45
2018-05-02T01:11:42.535Z,97893.92
2018-05-02T01:14:10.819Z,97888.78
2018-05-02T01:16:39.103Z,97893.14
2018-05-02T01:19:07.382Z,97891.73
2018-05-02T01:21:35.650Z,97892.93
2018-05-02T01:24:03.923Z,97879.94
2018-05-02T01:26:32.192Z,97881.48
2018-05-02T01:29:00.493Z,97883.05
2018-05-02T01:31:28.747Z,97878.05
2018-05-02T01:33:57.020Z,97886.49
2018-05-02T01:36:25.292Z,97888.43
2018-05-02T01:38:53.570Z,97888.27
2018-05-02T01:41:21.833Z,97878.29
2018-05-02T01:43:50.950Z,97884.08
2018-05-02T01:46:19.215Z,97882.16
2018-05-02T01:49:05.299Z,97882.37
2018-05-02T01:51:33.574Z,97878.42
2018-05-02T01:54:01.823Z,97884.40
2018-05-02T01:56:30.088Z,97887.36
2018-05-02T01:58:58.339Z,97887.08
2018-05-02T02:01:26.609Z,97885.22
2018-05-02T02:03:54.879Z,97895.94
2018-05-02T02:06:23.148Z,97888.94
2018-05-02T02:08:51.400Z,97885.40
2018-05-02T02:11:20.438Z,97889.63
2018-05-02T02:13:48.690Z,97884.33
2018-05-02T02:16:16.959Z,97885.66
2018-05-02T02:18:45.206Z,97884.00
2018-05-02T02:21:14.235Z,97880.52
2018-05-02T02:23:42.495Z,97878.77
2018-05-02T02:26:10.782Z,97880.95
2018-05-02T02:28:39.073Z,97883.63
2018-05-02T02:31:07.365Z,97881.09
2018-05-02T02:33:35.626Z,97881.26
2018-05-02T02:36:03.901Z,97882.86
2018-05-02T02:38:32.154Z,97876.39
2018-05-02T02:41:00.449Z,97881.21
2018-05-02T02:43:28.712Z,97874.30
2018-05-02T02:45:57.738Z,97873.77
2018-05-02T02:48:25.992Z,97868.90
2018-05-02T02:50:54.261Z,97871.16
2018-05-02T02:53:22.551Z,97873.00
2018-05-02T02:55:50.823Z,97873.16
2018-05-02T02:58:19.166Z,97864.73
2018-05-02T03:00:48.187Z,97858.84
2018-05-02T03:03:16.474Z,97854.35
2018-05-02T03:05:44.772Z,97849.84
2018-05-02T03:08:13.014Z,97851.08
2018-05-02T03:10:41.284Z,97852.27
2018-05-02T03:13:09.531Z,97847.28
2018-05-02T03:15:37.805Z,97850.76
2018-05-02T03:18:06.824Z,97854.94
2018-05-02T03:20:35.086Z,97864.72
2018-05-02T03:23:04.233Z,97869.78
2018-05-02T03:25:32.502Z,97879.23
2018-05-02T03:28:00.778Z,97881.48
2018-05-02T03:30:29.047Z,97879.41
2018-05-02T03:32:57.323Z,97868.45
2018-05-02T03:35:25.585Z,97866.91
2018-05-02T03:37:53.846Z,97870.70
2018-05-02T03:40:22.878Z,97871.97
2018-05-02T03:42:51.247Z,97872.72
2018-05-02T03:45:19.538Z,97878.08
2018-05-02T03:47:47.798Z,97880.13
2018-05-02T03:50:16.083Z,97886.53
2018-05-02T03:52:44.342Z,97872.03
2018-05-02T03:55:12.621Z,97873.31
2018-05-02T03:57:40.894Z,97867.74
2018-05-02T04:00:26.972Z,97867.02
2018-05-02T04:06:26.422Z,97872.23
2018-05-02T04:08:54.687Z,97887.88
2018-05-02T04:11:22.952Z,97891.03
2018-05-02T04:13:51.985Z,97889.04
2018-05-02T04:16:20.235Z,97882.66
2018-05-02T04:18:48.508Z,97890.49
2018-05-02T04:21:16.802Z,97891.63
2018-05-02T04:23:45.086Z,97884.48
2018-05-02T04:26:13.355Z,97893.86
2018-05-02T04:28:41.619Z,97898.64
2018-05-02T04:31:09.918Z,97899.23
2018-05-02T04:33:38.174Z,97897.81
2018-05-02T04:36:06.437Z,97903.88
2018-05-02T04:38:35.459Z,97900.94
2018-05-02T04:41:03.757Z,97902.10
2018-05-02T04:43:32.003Z,97907.92
2018-05-02T04:46:00.262Z,97905.24
2018-05-02T04:48:29.357Z,97907.72
2018-05-02T04:50:57.687Z,97909.67
2018-05-02T04:53:26.041Z,97905.91
2018-05-02T04:55:54.303Z,97905.07
2018-05-02T04:58:22.586Z,97899.25
2018-05-02T05:00:50.847Z,97910.36
2018-05-02T05:03:19.103Z,97906.23
2018-05-02T05:05:48.234Z,97901.73
2018-05-02T05:08:16.496Z,97903.93
2018-05-02T05:10:44.767Z,97900.59
2018-05-02T05:13:13.021Z,97907.93
2018-05-02T05:15:42.047Z,97904.96
2018-05-02T05:18:10.323Z,97910.85
2018-05-02T05:20:38.591Z,97908.91
2018-05-02T05:23:06.845Z,97904.59
2018-05-02T05:25:35.878Z,97907.93
2018-05-02T05:28:04.359Z,97906.73
2018-05-02T05:30:32.633Z,97906.15
2018-05-02T05:33:00.910Z,97906.49
2018-05-02T05:35:29.171Z,97911.09
2018-05-02T05:37:57.439Z,97907.14
2018-05-02T05:40:25.705Z,97903.20
2018-05-02T05:42:54.739Z,97900.48
2018-05-02T05:45:23.052Z,97902.95
2018-05-02T05:47:52.161Z,97904.14
2018-05-02T05:50:20.483Z,97897.66
2018-05-02T05:52:48.746Z,97896.46
2018-05-02T05:55:17.018Z,97901.38
2018-05-02T05:57:45.318Z,97902.67
2018-05-02T06:00:13.568Z,97904.94
2018-05-02T06:02:41.842Z,97902.41
2018-05-02T06:05:10.212Z,97900.70
2018-05-02T06:07:38.419Z,97901.01
2018-05-02T06:10:06.679Z,97899.36
2018-05-02T06:12:34.971Z,97902.54
2018-05-02T06:15:04.067Z,97899.83
2018-05-02T06:17:32.309Z,97899.94
2018-05-02T06:20:01.747Z,97897.16
2018-05-02T06:22:30.003Z,97897.40
2018-05-02T06:24:58.266Z,97907.88
2018-05-02T06:27:27.310Z,97908.50
2018-05-02T06:29:55.559Z,97907.84
2018-05-02T06:32:23.920Z,97902.34
2018-05-02T06:34:52.184Z,97896.41
2018-05-02T06:37:21.209Z,97893.62
2018-05-02T06:39:49.474Z,97896.16
2018-05-02T06:42:17.742Z,97896.84
2018-05-02T06:44:46.795Z,97900.13
2018-05-02T06:47:15.053Z,97890.76
2018-05-02T06:49:43.414Z,97890.41
2018-05-02T06:52:11.667Z,97891.92
2018-05-02T06:54:39.942Z,97885.48
2018-05-02T06:57:08.977Z,97877.90
2018-05-02T06:59:37.237Z,97883.20
2018-05-02T07:02:05.515Z,97894.04
2018-05-02T07:04:33.899Z,97894.14
2018-05-02T07:07:02.151Z,97890.70
2018-05-02T07:09:30.419Z,97885.84
2018-05-02T07:11:59.478Z,97888.11
2018-05-02T07:14:27.744Z,97894.14
2018-05-02T07:16:56.011Z,97886.52
2018-05-02T07:19:24.272Z,97889.13
2018-05-02T07:21:52.523Z,97884.00
2018-05-02T07:24:20.792Z,97888.27
2018-05-02T07:26:49.884Z,97889.89
2018-05-02T07:29:19.015Z,97889.84
2018-05-02T07:31:47.364Z,97893.23
2018-05-02T07:34:16.435Z,97892.70
2018-05-02T07:36:45.558Z,97896.05
2018-05-02T07:39:13.874Z,97896.05
2018-05-02T07:41:42.222Z,97897.73
2018-05-02T07:44:10.553Z,97893.06
2018-05-02T07:46:38.899Z,97899.39
2018-05-02T07:49:07.232Z,97894.24
2018-05-02T07:51:36.355Z,97899.22
2018-05-02T07:54:04.749Z,97890.03
2018-05-02T07:56:33.118Z,97888.92
2018-05-02T07:59:01.440Z,97892.80
2018-05-02T08:01:30.548Z,97887.22
2018-05-02T08:03:59.640Z,97887.51
2018-05-02T08:06:28.068Z,97887.94
2018-05-02T08:08:56.371Z,97888.89
2018-05-02T08:11:24.647Z,97880.09
2018-05-02T08:13:52.936Z,97876.07
2018-05-02T08:16:21.246Z,97867.06
2018-05-02T08:18:49.478Z,97858.77
2018-05-02T08:21:17.741Z,97852.05
2018-05-02T08:23:46.015Z,97850.40
2018-05-02T08:26:14.324Z,97843.72
2018-05-02T08:28:42.590Z,97839.67
2018-05-02T08:31:10.854Z,97833.77
2018-05-02T08:33:39.231Z,97832.59
2018-05-02T08:36:07.487Z,97823.61
2018-05-02T08:38:35.744Z,97820.50
2018-05-02T08:41:04.027Z,97825.56
2018-05-02T08:43:32.336Z,97817.97
2018-05-02T08:46:00.618Z,97817.36
2018-05-02T08:48:28.915Z,97814.98
2018-05-02T08:50:57.193Z,97814.30
2018-05-02T08:53:25.494Z,97804.06
2018-05-02T08:55:54.599Z,97804.63
2018-05-02T08:58:23.643Z,97805.01
2018-05-02T09:00:51.904Z,97803.66
2018-05-02T09:03:20.166Z,97795.86
2018-05-02T09:05:48.446Z,97788.94
2018-05-02T09:08:16.709Z,97774.15
2018-05-02T09:10:44.991Z,97786.77
2018-05-02T09:13:13.275Z,97785.42
2018-05-02T09:15:41.540Z,97777.09
2018-05-02T09:18:09.923Z,97775.85
2018-05-02T09:20:38.203Z,97773.34
2018-05-02T09:23:06.466Z,97772.70
2018-05-02T09:25:34.798Z,97768.73
2018-05-02T09:28:03.057Z,97772.33
2018-05-02T09:30:31.343Z,97765.91
2018-05-02T09:32:59.629Z,97761.36
2018-05-02T09:35:27.902Z,97764.25
2018-05-02T09:37:56.170Z,97753.81
2018-05-02T09:40:24.455Z,97751.84
2018-05-02T09:42:52.719Z,97753.72
2018-05-02T09:45:20.999Z,97749.78
2018-05-02T09:47:49.279Z,97747.65
2018-05-02T09:50:17.862Z,97738.55
2018-05-02T09:52:46.133Z,97734.70
2018-05-02T09:55:14.483Z,97737.19
2018-05-02T09:57:42.739Z,97735.30
2018-05-02T10:00:11.008Z,97737.98
2018-05-02T10:02:40.131Z,97732.94
2018-05-02T10:05:08.410Z,97730.28
2018-05-02T10:07:36.699Z,97730.86
2018-05-02T10:10:04.959Z,97728.40
2018-05-02T10:12:33.250Z,97727.73
2018-05-02T10:15:01.543Z,97726.68
2018-05-02T10:17:29.820Z,97724.47
2018-05-02T10:19:58.103Z,97729.59
2018-05-02T10:22:26.359Z,97721.75
2018-05-02T10:24:54.627Z,97724.66
2018-05-02T10:27:22.925Z,97718.33
2018-05-02T10:29:52.025Z,97722.91
2018-05-02T10:32:20.368Z,97717.30
2018-05-02T10:34:49.470Z,97717.94
2018-05-02T10:37:17.718Z,97718.34
2018-05-02T10:39:46.003Z,97713.40
2018-05-02T10:42:14.266Z,97710.44
2018-05-02T10:44:43.300Z,97706.98
2018-05-02T10:47:11.658Z,97708.51
2018-05-02T10:49:39.931Z,97710.98
2018-05-02T10:52:08.223Z,97707.13
2018-05-02T10:54:36.501Z,97707.69
2018-05-02T10:57:04.782Z,97704.41
2018-05-02T10:59:33.145Z,97707.70
2018-05-02T11:02:01.520Z,97701.23
2018-05-02T11:04:29.800Z,97697.45
2018-05-02T11:06:58.087Z,97692.52
2018-05-02T11:09:26.348Z,97691.71
2018-05-02T11:11:54.624Z,97682.32
2018-05-02T11:14:22.902Z,97687.44
2018-05-02T11:16:51.189Z,97680.20
2018-05-02T11:19:19.462Z,97678.19
2018-05-02T11:21:47.748Z,97679.25
2018-05-02T11:24:16.082Z,97676.03
2018-05-02T11:26:45.136Z,97673.77
2018-05-02T11:29:13.434Z,97671.52
2018-05-02T11:31:41.707Z,97675.23
2018-05-02T11:34:09.971Z,97667.64
2018-05-02T11:36:38.255Z,97665.20
2018-05-02T11:39:06.511Z,97669.42
2018-05-02T11:41:34.779Z,97657.78
2018-05-02T11:44:03.056Z,97659.47
2018-05-02T11:46:31.325Z,97657.89
2018-05-02T11:48:59.595Z,97666.94
2018-05-02T11:51:27.861Z,97663.06
2018-05-02T11:53:56.153Z,97662.30
2018-05-02T11:56:24.457Z,97653.14
2018-05-02T11:58:52.722Z,97655.56
2018-05-02T12:01:20.998Z,97664.42
2018-05-02T12:03:49.278Z,97671.42
2018-05-02T12:06:17.566Z,97667.89
2018-05-02T12:08:45.847Z,97666.07
2018-05-02T12:11:14.146Z,97660.83
2018-05-02T12:13:43.181Z,97656.98
2018-05-02T12:16:11.478Z,97649.68
2018-05-02T12:18:39.739Z,97647.37
2018-05-02T12:21:08.080Z,97642.22
2018-05-02T12:23:37.102Z,97642.80
2018-05-02T12:26:05.389Z,97640.33
2018-05-02T12:28:33.639Z,97633.34
2018-05-02T12:31:01.936Z,97632.63
2018-05-02T12:33:30.186Z,97629.11
2018-05-02T12:35:58.482Z,97626.32
2018-05-02T12:38:26.793Z,97622.45
2018-05-02T12:40:55.106Z,97616.27
2018-05-02T12:43:24.166Z,97613.11
2018-05-02T12:45:52.462Z,97609.88
2018-05-02T12:48:21.488Z,97605.20
2018-05-02T12:50:49.771Z,97605.77
2018-05-02T12:53:18.031Z,97602.00
2018-05-02T12:55:46.357Z,97601.09
2018-05-02T12:58:15.397Z,97595.60
2018-05-02T13:00:44.443Z,97602.01
2018-05-02T13:03:12.731Z,97599.38
2018-05-02T13:05:41.006Z,97590.13
2018-05-02T13:08:09.377Z,97591.22
2018-05-02T13:10:38.354Z,97583.53
2018-05-02T13:13:06.650Z,97588.61
2018-05-02T13:15:34.964Z,97581.80
2018-05-02T13:18:03.200Z,97572.34
2018-05-02T13:20:31.515Z,97576.59
2018-05-02T13:23:00.555Z,97570.28
2018-05-02T13:25:28.838Z,97563.13
2018-05-02T13:27:57.103Z,97567.38
2018-05-02T13:30:25.470Z,97570.03
2018-05-02T13:32:53.746Z,97561.67
2018-05-02T13:35:22.010Z,97558.86
2018-05-02T13:37:50.278Z,97558.75
2018-05-02T13:40:18.629Z,97554.87
2018-05-02T13:42:46.897Z,97553.33
2018-05-02T13:45:15.207Z,97545.09
2018-05-02T13:47:44.299Z,97545.30
2018-05-02T13:50:13.376Z,97540.20
2018-05-02T13:52:42.398Z,97534.99
2018-05-02T13:55:10.691Z,97530.30
2018-05-02T13:57:38.979Z,97529.24
2018-05-02T14:00:07.248Z,97521.77
2018-05-02T14:02:35.530Z,97514.70
2018-05-02T14:05:03.807Z,97513.31
2018-05-02T14:07:32.077Z,97515.21
2018-05-02T14:10:00.359Z,97510.62
2018-05-02T14:12:28.619Z,97506.80
2018-05-02T14:14:56.902Z,97510.16
2018-05-02T14:17:25.182Z,97511.09
2018-05-02T14:19:53.459Z,97515.70
2018-05-02T14:22:21.731Z,97507.01
2018-05-02T14:24:51.200Z,97506.38
2018-05-02T14:27:19.441Z,97507.91
2018-05-02T14:29:47.703Z,97504.79
2018-05-02T14:32:16.032Z,97506.14
2018-05-02T14:34:45.160Z,97510.98
2018-05-02T14:37:13.425Z,97507.41
2018-05-02T14:39:41.686Z,97501.39
2018-05-02T14:42:10.812Z,97502.78
2018-05-02T14:44:39.071Z,97510.02
2018-05-02T14:47:07.347Z,97503.56
2018-05-02T14:49:35.606Z,97495.78
2018-05-02T14:52:04.656Z,97499.69
2018-05-02T14:54:32.927Z,97503.92
2018-05-02T14:57:01.203Z,97503.09
2018-05-02T14:59:29.472Z,97503.03
2018-05-02T15:01:57.819Z,97506.03
2018-05-02T15:04:26.027Z,97509.99
2018-05-02T15:06:54.384Z,97514.97
2018-05-02T15:09:22.681Z,97514.96
2018-05-02T15:11:50.935Z,97509.97
2018-05-02T15:14:19.213Z,97512.30
2018-05-02T15:16:47.498Z,97516.22
2018-05-02T15:19:15.794Z,97513.67
2018-05-02T15:21:44.074Z,97521.59
2018-05-02T15:24:12.374Z,97524.20
2018-05-02T15:26:40.702Z,97525.70
2018-05-02T15:29:08.986Z,97521.20
2018-05-02T15:31:37.255Z,97522.16
2018-05-02T15:34:05.528Z,97517.80
2018-05-02T15:36:33.806Z,97511.00
2018-05-02T15:39:02.070Z,97513.67
2018-05-02T15:41:30.355Z,97514.56
2018-05-02T15:43:58.619Z,97511.50
2018-05-02T15:46:26.884Z,97501.30
2018-05-02T15:48:55.961Z,97511.41
2018-05-02T15:51:24.219Z,97506.31
2018-05-02T15:53:52.496Z,97502.83
2018-05-02T15:56:20.804Z,97501.81
2018-05-02T15:58:49.854Z,97498.33
2018-05-02T16:01:18.138Z,97492.72
2018-05-02T16:03:46.415Z,97492.54
2018-05-02T16:06:14.715Z,97487.82
2018-05-02T16:08:43.011Z,97485.53
2018-05-02T16:11:12.042Z,97496.07
2018-05-02T16:13:40.324Z,97490.86
2018-05-02T16:16:08.616Z,97490.25
2018-05-02T16:18:36.876Z,97488.56
2018-05-02T16:21:05.150Z,97490.14
2018-05-02T16:23:33.435Z,97489.42
2018-05-02T16:26:01.724Z,97491.82
2018-05-02T16:28:30.012Z,97494.97
2018-05-02T16:30:58.287Z,97493.36
2018-05-02T16:33:26.560Z,97494.48
2018-05-02T16:35:54.828Z,97499.09
2018-05-02T16:38:23.102Z,97503.73
2018-05-02T16:40:51.396Z,97503.99
2018-05-02T16:43:19.682Z,97507.13
2018-05-02T16:45:48.722Z,97503.24
2018-05-02T16:48:16.990Z,97498.67
2018-05-02T16:50:45.272Z,97503.99
2018-05-02T16:53:13.559Z,97502.39
2018-05-02T16:55:41.822Z,97501.29
2018-05-02T16:58:10.105Z,97500.14
2018-05-02T17:00:38.385Z,97502.05
2018-05-02T17:03:06.653Z,97496.48
2018-05-02T17:05:34.922Z,97498.89
2018-05-02T17:08:03.202Z,97500.01
2018-05-02T17:10:31.480Z,97500.27
2018-05-02T17:12:59.907Z,97498.12
2018-05-02T17:15:28.043Z,97496.59
2018-05-02T17:17:56.309Z,97495.05
2018-05-02T17:20:24.612Z,97494.50
2018-05-02T17:22:52.883Z,97492.95
2018-05-02T17:25:21.164Z,97494.23
2018-05-02T17:27:49.436Z,97498.22
2018-05-02T17:30:18.480Z,97499.89
2018-05-02T17:32:47.539Z,97498.69
2018-05-02T17:35:15.908Z,97501.41
2018-05-02T17:37:44.200Z,97490.14
2018-05-02T17:40:12.493Z,97490.53
2018-05-02T17:42:40.820Z,97496.29
2018-05-02T17:45:09.111Z,97496.67
2018-05-02T17:47:37.477Z,97502.34
2018-05-02T17:50:06.094Z,97500.37
2018-05-02T17:52:35.275Z,97490.89
2018-05-02T17:55:03.567Z,97495.16
2018-05-02T17:57:31.939Z,97505.33
2018-05-02T18:00:00.348Z,97512.21
2018-05-02T18:02:29.440Z,97508.25
2018-05-02T18:04:59.865Z,97512.97
2018-05-02T18:07:28.862Z,97506.98
2018-05-02T18:09:58.844Z,97511.05
2018-05-02T18:12:27.670Z,97514.11
2018-05-02T18:14:57.556Z,97514.26
2018-05-02T18:17:27.510Z,97508.64
2018-05-02T18:19:56.749Z,97511.58
2018-05-02T18:22:26.237Z,97518.95
2018-05-02T18:24:55.625Z,97518.17
2018-05-02T18:27:25.743Z,97519.23
2018-05-02T18:29:55.724Z,97515.27
2018-05-02T18:32:25.623Z,97516.66
2018-05-02T18:34:54.823Z,97522.53
2018-05-02T18:37:24.240Z,97526.50
2018-05-02T18:39:53.550Z,97522.69
2018-05-02T18:42:22.868Z,97522.81
2018-05-02T18:44:52.271Z,97524.25
2018-05-02T18:47:21.611Z,97532.53
2018-05-02T18:49:51.033Z,97535.70
2018-05-02T18:52:20.406Z,97534.22
2018-05-02T18:54:49.805Z,97534.01
2018-05-02T18:57:20.753Z,97533.45
2018-05-02T18:59:50.176Z,97536.55
2018-05-02T19:02:20.096Z,97535.15
2018-05-02T19:04:50.301Z,97536.14
2018-05-02T19:07:20.950Z,97543.97
2018-05-02T19:09:51.113Z,97548.81
2018-05-02T19:12:21.782Z,97550.88
2018-05-02T19:14:51.714Z,97547.70
2018-05-02T19:17:21.678Z,97550.48
2018-05-02T19:19:56.787Z,97554.78
2018-05-02T19:22:26.637Z,97556.23
2018-05-02T19:25:02.743Z,97556.86
2018-05-02T19:27:32.812Z,97564.39
2018-05-02T19:30:03.702Z,97571.02
2018-05-02T19:32:38.599Z,97569.53
2018-05-02T19:35:08.502Z,97568.20
2018-05-02T19:37:39.091Z,97565.83
2018-05-02T19:40:14.377Z,97572.93
2018-05-02T19:42:49.571Z,97572.86
2018-05-02T19:45:19.454Z,97571.59
2018-05-02T19:47:49.310Z,97572.44
2018-05-02T19:50:19.306Z,97573.20
2018-05-02T19:52:49.228Z,97573.20
2018-05-02T19:55:20.102Z,97570.61
2018-05-02T19:57:50.168Z,97569.33
2018-05-02T20:00:25.575Z,97564.58
2018-05-02T20:03:02.203Z,97571.43
2018-05-02T20:05:32.216Z,97564.88
2018-05-02T20:08:02.155Z,97569.00
2018-05-02T20:10:38.342Z,97567.88
2018-05-02T20:13:14.317Z,97566.92
2018-05-02T20:15:44.301Z,97564.30
2018-05-02T20:18:14.951Z,97573.02
2018-05-02T20:20:44.447Z,97572.76
2018-05-02T20:23:13.862Z,97572.05
2018-05-02T20:25:43.821Z,97576.68
2018-05-02T20:28:13.417Z,97571.94
2018-05-02T20:30:43.413Z,97574.04
2018-05-02T20:33:13.327Z,97581.01
2018-05-02T20:35:43.328Z,97582.91
2018-05-02T20:38:13.894Z,97577.69
2018-05-02T20:40:43.805Z,97579.07
2018-05-02T20:43:14.146Z,97578.38
2018-05-02T20:45:43.773Z,97570.25
2018-05-02T20:48:13.361Z,97575.94
2018-05-02T20:50:43.263Z,97580.15
2018-05-02T20:53:13.936Z,97575.03
2018-05-02T20:55:44.051Z,97582.45
2018-05-02T20:58:13.739Z,97574.30
2018-05-02T21:00:43.534Z,97582.48
2018-05-02T21:03:12.851Z,97575.41
2018-05-02T21:05:41.309Z,97574.48
2018-05-02T21:08:09.760Z,97579.80
2018-05-02T21:10:38.065Z,97582.33
2018-05-02T21:13:06.367Z,97589.09
2018-05-02T21:15:34.664Z,97587.89
2018-05-02T21:18:03.771Z,97584.90
2018-05-02T21:20:32.068Z,97592.66
2018-05-02T21:23:00.343Z,97591.11
2018-05-02T21:25:28.612Z,97592.52
2018-05-02T21:27:56.898Z,97596.09
2018-05-02T21:30:25.183Z,97594.94
2018-05-02T21:32:53.547Z,97592.67
2018-05-02T21:35:21.857Z,97589.65
2018-05-02T21:37:51.644Z,97584.93
2018-05-02T21:40:20.008Z,97584.30
2018-05-02T21:42:48.383Z,97587.38
2018-05-02T21:45:16.653Z,97585.69
2018-05-02T21:47:44.985Z,97587.34
2018-05-02T21:50:13.202Z,97591.42
2018-05-02T21:52:41.511Z,97593.66
2018-05-02T21:55:09.802Z,97593.47
2018-05-02T21:57:38.153Z,97597.47
2018-05-02T22:00:06.528Z,97597.73
2018-05-02T22:02:34.791Z,97605.82
2018-05-02T22:05:03.155Z,97606.04
2018-05-02T22:07:32.264Z,97609.45
2018-05-02T22:10:00.656Z,97608.05
2018-05-02T22:12:28.915Z,97607.91
2018-05-02T22:14:57.183Z,97605.80
2018-05-02T22:17:26.315Z,97605.25
2018-05-02T22:19:54.572Z,97605.13
2018-05-02T22:22:22.877Z,97604.81
2018-05-02T22:24:51.143Z,97600.21
2018-05-02T22:27:19.414Z,97598.97
2018-05-02T22:29:47.707Z,97596.88
2018-05-02T22:32:15.967Z,97606.61
2018-05-02T22:34:44.255Z,97608.70
2018-05-02T22:37:12.531Z,97606.97
2018-05-02T22:39:41.828Z,97606.52
2018-05-02T22:42:10.164Z,97602.75
2018-05-02T22:44:38.390Z,97600.97
2018-05-02T22:47:06.679Z,97598.52
2018-05-02T22:49:34.965Z,97599.34
2018-05-02T22:52:03.304Z,97598.80
2018-05-02T22:54:31.606Z,97596.66
2018-05-02T22:56:59.872Z,97585.62
2018-05-02T22:59:28.131Z,97576.59
2018-05-02T23:01:56.510Z,97581.33
2018-05-02T23:04:24.889Z,97576.68
2018-05-02T23:06:53.166Z,97580.97
2018-05-02T23:09:21.443Z,97586.20
2018-05-02T23:11:49.817Z,97582.81
2018-05-02T23:14:18.074Z,97581.59
2018-05-02T23:16:46.423Z,97585.02
2018-05-02T23:19:14.835Z,97587.69
2018-05-02T23:21:43.887Z,97589.75
2018-05-02T23:24:12.239Z,97588.16
2018-05-02T23:26:40.508Z,97587.13
2018-05-02T23:29:08.803Z,97586.06
2018-05-02T23:31:37.077Z,97582.27
2018-05-02T23:34:05.441Z,97582.61
2018-05-02T23:36:33.715Z,97582.90
2018-05-02T23:39:01.983Z,97579.47
2018-05-02T23:41:30.270Z,97581.34
2018-05-02T23:43:58.536Z,97584.67
2018-05-02T23:46:26.922Z,97588.28
2018-05-02T23:48:55.175Z,97584.02
2018-05-02T23:51:23.454Z,97582.93
2018-05-02T23:53:51.725Z,97582.16
2018-05-02T23:56:20.759Z,97585.93
2018-05-02T23:58:49.090Z,97584.22
